首页
METAR-TAF:

METAR-TAF

机场 :

Cordele, 喬治亞, 美国

纬度: 31-59-20N, 经度: 083-46-26W, 海拔: 94米

当前天气观测

该预报发布于18分钟前的20:55 UTC
风速3节,风向西转西南
温度 12°C
湿度 44%
气压 1019 hPa
能見度: 16.1公里
阴天层高于9000英尺

METAR: KCKF 262055Z AUTO 24003KT 10SM OVC090 12/00 A3008 RMK AO2 T01210001

时间: 16:13 (21:13 UTC)


TAF: 丢失

超过4000个机场的气象观测和天气预报(METAR&TAF报告)。

可查询的气象台以黄色和红色小点在地图上表示。

将鼠标移到小点上方,可查看气象台名称。

然后点击查看天气观测和预报。

如需切换地图:点击带黑十字的绿色按钮放大地图;点击带横线的绿色按钮缩小地图;或者点击绿色箭头查看邻近地区的地图。


METAR-TAF: